PWSweather.com
Personal Weather Stations
Station Observations
UISISLE1
Newport, Isle ofWight, ISLE OF WIGHT PO30 2JX

NewportIsle ofWight, ISLE OF WIGHT PO30 2JX

Lat: 50.72, Lon: -1.27

Elevation: 45

Station Type: Davis Vantage Pro Plus

http://www.isleofwightweather.co.uk

High Low Average
Temperature 55.5°F13.1°C 50.8°F10.4°C 54.0°F12.2°C
Dew Point 54.7°F12.6°C 49.4°F9.7°C 53.0°F11.7°C
Winds 14.1 mph 22.7 kmh 1.8 mph 2.9 kmh 6.0 mph SW9.7 kmh SW
Wind Gusts 23.0 mph37.0 kmh 5.0 mph8.0 kmh 12.0 mph19.3 kmh
Humidity 97% 95% 96%
Pressure 29.63 in1003.4 mb 29.46 in997.6 mb -
Precipitation 0.53 in13.5 mm - -
Hour Temp Dew Point Humidity Winds Wind Gusts Pressure Precip Precip Rate Daily Precip Total
09:15 AM 50.8°F10.4°C 49.4°F9.7°C 95% 2.6 mph SSW4.2 kmh SSW 12.0 mph19.3 kmh 29.63 in1003.4 mb - 0.02 in0.5 mm 0.34 in8.6 mm
09:30 AM 51.0°F10.6°C 49.6°F9.8°C 95% 5.7 mph SSW9.2 kmh SSW 11.0 mph17.7 kmh 29.62 in1003.0 mb - 0.01 in0.3 mm 0.35 in8.9 mm
09:45 AM 51.3°F10.7°C 49.9°F9.9°C 95% 5.0 mph SE8.0 kmh SE 13.0 mph20.9 kmh 29.61 in1002.7 mb - 0.02 in0.5 mm 0.36 in9.1 mm
10:00 AM 51.7°F10.9°C 50.6°F10.3°C 96% 6.9 mph SW11.1 kmh SW 16.0 mph25.7 kmh 29.61 in1002.7 mb - 0.02 in0.5 mm 0.38 in9.7 mm
10:15 AM 52.2°F11.2°C 51.1°F10.6°C 96% 6.4 mph SSW10.3 kmh SSW 17.0 mph27.4 kmh 29.61 in1002.7 mb - 0.01 in0.3 mm 0.39 in9.9 mm
10:30 AM 52.8°F11.6°C 51.7°F10.9°C 96% 8.7 mph SW14.0 kmh SW 11.0 mph17.7 kmh 29.59 in1002.0 mb - 0.01 in0.3 mm 0.39 in9.9 mm
10:45 AM 53.2°F11.8°C 52.1°F11.2°C 96% 7.1 mph WSW11.4 kmh WSW 15.0 mph24.1 kmh 29.58 in1001.7 mb - 0.01 in0.3 mm 0.40 in10.2 mm
11:00 AM 53.6°F12.0°C 52.5°F11.4°C 96% 14.1 mph SW22.7 kmh SW 19.0 mph30.6 kmh 29.58 in1001.7 mb - 0.00 in0.0 mm 0.40 in10.2 mm
11:15 AM 54.0°F12.2°C 52.9°F11.6°C 96% 5.8 mph SSW9.3 kmh SSW 10.0 mph16.1 kmh 29.58 in1001.7 mb - 0.01 in0.3 mm 0.41 in10.4 mm
11:30 AM 54.3°F12.4°C 53.2°F11.8°C 96% 10.4 mph WSW16.7 kmh WSW 23.0 mph37.0 kmh 29.58 in1001.7 mb - 0.00 in0.0 mm 0.41 in10.4 mm
11:45 AM 54.8°F12.7°C 53.7°F12.1°C 96% 7.6 mph SSW12.2 kmh SSW 15.0 mph24.1 kmh 29.57 in1001.4 mb - 0.00 in0.0 mm 0.41 in10.4 mm
12:00 PM 55.1°F12.8°C 54.2°F12.3°C 97% 7.3 mph SW11.7 kmh SW 14.0 mph22.5 kmh 29.57 in1001.4 mb - 0.00 in0.0 mm 0.41 in10.4 mm
12:15 PM 55.2°F12.9°C 54.4°F12.4°C 97% 8.8 mph SSW14.2 kmh SSW 16.0 mph25.7 kmh 29.57 in1001.4 mb - 0.01 in0.3 mm 0.42 in10.7 mm
12:30 PM 55.3°F12.9°C 54.5°F12.5°C 97% 8.3 mph SW13.4 kmh SW 12.0 mph19.3 kmh 29.57 in1001.4 mb - 0.00 in0.0 mm 0.42 in10.7 mm
12:45 PM 55.2°F12.9°C 54.4°F12.4°C 97% 7.0 mph SW11.3 kmh SW 16.5 mph26.6 kmh 29.57 in1001.4 mb - 0.00 in0.0 mm 0.42 in10.7 mm
01:00 PM 55.4°F13.0°C 54.6°F12.6°C 97% 9.7 mph SW15.6 kmh SW 16.0 mph25.7 kmh 29.56 in1001.0 mb - 0.00 in0.0 mm 0.42 in10.7 mm
01:15 PM 55.5°F13.1°C 54.7°F12.6°C 97% 5.0 mph SW8.0 kmh SW 10.3 mph16.6 kmh 29.56 in1001.0 mb - 0.00 in0.0 mm 0.42 in10.7 mm
01:30 PM 55.5°F13.1°C 54.7°F12.6°C 97% 5.5 mph SSW8.9 kmh SSW 11.0 mph17.7 kmh 29.55 in1000.7 mb - 0.00 in0.0 mm 0.42 in10.7 mm
01:45 PM 55.4°F13.0°C 54.6°F12.6°C 97% 6.0 mph WSW9.7 kmh WSW 14.0 mph22.5 kmh 29.55 in1000.7 mb - 0.00 in0.0 mm 0.42 in10.7 mm
02:00 PM 55.3°F12.9°C 54.5°F12.5°C 97% 9.2 mph WSW14.8 kmh WSW 13.0 mph20.9 kmh 29.55 in1000.7 mb - 0.00 in0.0 mm 0.42 in10.7 mm
02:15 PM 55.1°F12.8°C 54.3°F12.4°C 97% 6.2 mph WSW10.0 kmh WSW 12.0 mph19.3 kmh 29.55 in1000.7 mb - 0.00 in0.0 mm 0.42 in10.7 mm
02:30 PM 54.9°F12.7°C 54.1°F12.3°C 97% 7.1 mph SW11.4 kmh SW 11.3 mph18.2 kmh 29.55 in1000.7 mb - 0.00 in0.0 mm 0.42 in10.7 mm
02:45 PM 54.8°F12.7°C 53.9°F12.2°C 97% 6.1 mph SW9.8 kmh SW 13.0 mph20.9 kmh 29.55 in1000.7 mb - 0.00 in0.0 mm 0.42 in10.7 mm
03:00 PM 54.6°F12.6°C 53.8°F12.1°C 97% 1.9 mph WSW3.1 kmh WSW 7.0 mph11.3 kmh 29.55 in1000.7 mb - 0.00 in0.0 mm 0.42 in10.7 mm
03:15 PM 54.6°F12.6°C 53.8°F12.1°C 97% 4.9 mph WSW7.9 kmh WSW 7.0 mph11.3 kmh 29.55 in1000.7 mb - 0.01 in0.3 mm 0.43 in10.9 mm
03:30 PM 54.5°F12.5°C 53.7°F12.1°C 97% 5.8 mph SW9.3 kmh SW 13.0 mph20.9 kmh 29.55 in1000.7 mb - 0.00 in0.0 mm 0.43 in10.9 mm
03:45 PM 54.5°F12.5°C 53.7°F12.1°C 97% 6.4 mph WSW10.3 kmh WSW 15.0 mph24.1 kmh 29.55 in1000.7 mb - 0.00 in0.0 mm 0.43 in10.9 mm
04:00 PM 54.4°F12.4°C 53.6°F12.0°C 97% 5.4 mph SW8.7 kmh SW 12.0 mph19.3 kmh 29.55 in1000.7 mb - 0.00 in0.0 mm 0.43 in10.9 mm
04:15 PM 54.0°F12.2°C 53.2°F11.8°C 97% 6.0 mph WSW9.7 kmh WSW 11.0 mph17.7 kmh 29.55 in1000.7 mb - 0.00 in0.0 mm 0.43 in10.9 mm
04:30 PM 53.8°F12.1°C 53.0°F11.7°C 97% 2.7 mph SW4.3 kmh SW 8.0 mph12.9 kmh 29.55 in1000.7 mb - 0.00 in0.0 mm 0.43 in10.9 mm
04:45 PM 53.8°F12.1°C 53.0°F11.7°C 97% 5.6 mph SW9.0 kmh SW 10.0 mph16.1 kmh 29.55 in1000.7 mb - 0.00 in0.0 mm 0.43 in10.9 mm
05:00 PM 53.3°F11.8°C 52.2°F11.2°C 96% 10.1 mph SW16.3 kmh SW 13.0 mph20.9 kmh 29.55 in1000.7 mb - 0.00 in0.0 mm 0.43 in10.9 mm
05:15 PM 53.2°F11.8°C 52.4°F11.3°C 97% 7.7 mph SW12.4 kmh SW 14.0 mph22.5 kmh 29.55 in1000.7 mb - 0.00 in0.0 mm 0.43 in10.9 mm
05:30 PM 53.0°F11.7°C 51.9°F11.1°C 96% 7.1 mph SW11.4 kmh SW 16.0 mph25.7 kmh 29.55 in1000.7 mb - 0.00 in0.0 mm 0.43 in10.9 mm
05:45 PM 52.9°F11.6°C 51.8°F11.0°C 96% 3.5 mph WSW5.6 kmh WSW 6.0 mph9.7 kmh 29.55 in1000.7 mb - 0.00 in0.0 mm 0.43 in10.9 mm
06:00 PM 53.0°F11.7°C 51.9°F11.1°C 96% 5.9 mph SW9.5 kmh SW 10.0 mph16.1 kmh 29.55 in1000.7 mb - 0.00 in0.0 mm 0.43 in10.9 mm
06:15 PM 53.2°F11.8°C 52.1°F11.2°C 96% 4.8 mph WSW7.7 kmh WSW 8.0 mph12.9 kmh 29.56 in1001.0 mb - 0.00 in0.0 mm 0.43 in10.9 mm
06:30 PM 53.0°F11.7°C 51.9°F11.1°C 96% 4.4 mph SW7.1 kmh SW 9.0 mph14.5 kmh 29.55 in1000.7 mb - 0.00 in0.0 mm 0.43 in10.9 mm
06:45 PM 53.0°F11.7°C 51.9°F11.1°C 96% 3.0 mph WSW4.8 kmh WSW 6.0 mph9.7 kmh 29.55 in1000.7 mb - 0.00 in0.0 mm 0.43 in10.9 mm
07:00 PM 53.2°F11.8°C 52.1°F11.2°C 96% 5.3 mph WSW8.5 kmh WSW 8.0 mph12.9 kmh 29.55 in1000.7 mb - 0.00 in0.0 mm 0.43 in10.9 mm
07:15 PM 53.3°F11.8°C 52.2°F11.2°C 96% 6.4 mph WSW10.3 kmh WSW 13.0 mph20.9 kmh 29.54 in1000.3 mb - 0.00 in0.0 mm 0.43 in10.9 mm
07:30 PM 53.3°F11.8°C 52.2°F11.2°C 96% 3.5 mph SW5.6 kmh SW 8.0 mph12.9 kmh 29.54 in1000.3 mb - 0.00 in0.0 mm 0.43 in10.9 mm
07:45 PM 53.4°F11.9°C 52.3°F11.3°C 96% 7.0 mph WSW11.3 kmh WSW 12.0 mph19.3 kmh 29.53 in1000.0 mb - 0.00 in0.0 mm 0.43 in10.9 mm
08:00 PM 53.5°F11.9°C 52.4°F11.3°C 96% 7.0 mph WSW11.3 kmh WSW 9.0 mph14.5 kmh 29.52 in999.7 mb - 0.00 in0.0 mm 0.43 in10.9 mm
08:15 PM 53.7°F12.1°C 52.6°F11.4°C 96% 8.5 mph WSW13.7 kmh WSW 14.0 mph22.5 kmh 29.53 in1000.0 mb - 0.00 in0.0 mm 0.43 in10.9 mm
08:30 PM 53.8°F12.1°C 52.7°F11.5°C 96% 7.5 mph SSW12.1 kmh SSW 8.0 mph12.9 kmh 29.52 in999.7 mb - 0.00 in0.0 mm 0.43 in10.9 mm
08:45 PM 54.0°F12.2°C 52.9°F11.6°C 96% 5.0 mph SSW8.0 kmh SSW 7.0 mph11.3 kmh 29.52 in999.7 mb - 0.00 in0.0 mm 0.43 in10.9 mm
09:00 PM 54.1°F12.3°C 53.0°F11.7°C 96% 5.7 mph WSW9.2 kmh WSW 11.0 mph17.7 kmh 29.52 in999.7 mb - 0.00 in0.0 mm 0.43 in10.9 mm
09:15 PM 54.3°F12.4°C 53.2°F11.8°C 96% 6.0 mph SSW9.7 kmh SSW 9.0 mph14.5 kmh 29.52 in999.7 mb - 0.00 in0.0 mm 0.43 in10.9 mm
09:30 PM 54.4°F12.4°C 53.3°F11.8°C 96% 7.8 mph WSW12.6 kmh WSW 11.0 mph17.7 kmh 29.51 in999.3 mb - 0.01 in0.3 mm 0.43 in10.9 mm
09:45 PM 54.4°F12.4°C 53.3°F11.8°C 96% 6.2 mph SW10.0 kmh SW 10.0 mph16.1 kmh 29.51 in999.3 mb - 0.02 in0.5 mm 0.45 in11.4 mm
10:00 PM 54.5°F12.5°C 53.4°F11.9°C 96% 1.8 mph WSW2.9 kmh WSW 5.0 mph8.0 kmh 29.50 in999.0 mb - 0.02 in0.5 mm 0.47 in11.9 mm
10:15 PM 54.6°F12.6°C 53.5°F11.9°C 96% 4.6 mph SW7.4 kmh SW 7.0 mph11.3 kmh 29.49 in998.6 mb - 0.03 in0.8 mm 0.50 in12.7 mm
10:30 PM 54.8°F12.7°C 53.7°F12.1°C 96% 7.0 mph SW11.3 kmh SW 11.0 mph17.7 kmh 29.49 in998.6 mb - 0.02 in0.5 mm 0.51 in13.0 mm
10:45 PM 55.0°F12.8°C 54.2°F12.3°C 97% 5.5 mph SW8.9 kmh SW 10.0 mph16.1 kmh 29.49 in998.6 mb - 0.00 in0.0 mm 0.51 in13.0 mm
11:00 PM 55.2°F12.9°C 54.4°F12.4°C 97% 7.7 mph SW12.4 kmh SW 11.0 mph17.7 kmh 29.48 in998.3 mb - 0.01 in0.3 mm 0.52 in13.2 mm
11:15 PM 55.4°F13.0°C 54.5°F12.5°C 97% 6.2 mph SW10.0 kmh SW 9.0 mph14.5 kmh 29.47 in998.0 mb - 0.01 in0.3 mm 0.53 in13.5 mm
11:30 PM 55.5°F13.1°C 54.7°F12.6°C 97% 9.8 mph SSW15.8 kmh SSW 18.0 mph29.0 kmh 29.46 in997.6 mb - 0.00 in0.0 mm 0.53 in13.5 mm
11:45 PM 55.5°F13.1°C 54.7°F12.6°C 97% 8.2 mph SSW13.2 kmh SSW 15.0 mph24.1 kmh 29.46 in997.6 mb - 0.00 in0.0 mm 0.53 in13.5 mm